createdAt,value
2022-08-26T00:00:18.779Z,88559.81
2022-08-26T00:03:03.549Z,88554.19
2022-08-26T00:05:48.396Z,88552.81
2022-08-26T00:08:33.530Z,88543.72
2022-08-26T00:11:26.609Z,88541.63
2022-08-26T00:14:12.455Z,88542.00
2022-08-26T00:16:58.363Z,88540.53
2022-08-26T00:19:43.566Z,88539.63
2022-08-26T00:22:28.336Z,88537.75
2022-08-26T00:25:12.938Z,88537.66
2022-08-26T00:27:57.738Z,88534.75
2022-08-26T00:30:42.455Z,88542.63
2022-08-26T00:33:27.374Z,88533.88
2022-08-26T00:36:20.044Z,88541.47
2022-08-26T00:39:05.446Z,88535.72
2022-08-26T00:41:51.135Z,88538.97
2022-08-26T00:44:36.566Z,88530.06
2022-08-26T00:47:21.294Z,88533.41
2022-08-26T00:50:06.190Z,88536.63
2022-08-26T00:52:50.937Z,88541.25
2022-08-26T00:55:38.018Z,88539.19
2022-08-26T00:58:23.660Z,88535.13
2022-08-26T01:01:08.373Z,88539.53
2022-08-26T01:03:53.599Z,88539.41
2022-08-26T01:06:40.229Z,88537.34
2022-08-26T01:09:28.937Z,88539.19
2022-08-26T01:12:14.688Z,88537.25
2022-08-26T01:14:59.411Z,88537.91
2022-08-26T01:17:44.245Z,88540.69
2022-08-26T01:23:13.017Z,88545.44
2022-08-26T01:29:01.531Z,88546.34
2022-08-26T01:31:46.407Z,88545.88
2022-08-26T01:34:31.476Z,88546.34
2022-08-26T01:37:16.244Z,88539.56
2022-08-26T01:40:01.018Z,88546.81
2022-08-26T01:42:46.218Z,88547.28
2022-08-26T01:45:32.340Z,88548.09
2022-08-26T01:48:17.492Z,88544.63
2022-08-26T01:51:02.286Z,88547.41
2022-08-26T01:53:46.957Z,88552.59
2022-08-26T01:56:33.382Z,88553.53
2022-08-26T01:59:21.432Z,88560.00
2022-08-26T02:02:06.589Z,88563.78
2022-08-26T02:04:51.393Z,88569.56
2022-08-26T02:07:36.697Z,88569.81
2022-08-26T02:10:21.965Z,88565.06
2022-08-26T02:13:06.958Z,88563.69
2022-08-26T02:15:52.038Z,88562.53
2022-08-26T02:18:36.900Z,88566.56
2022-08-26T02:21:22.127Z,88568.06
2022-08-26T02:24:09.873Z,88570.81
2022-08-26T02:26:55.350Z,88565.50
2022-08-26T02:29:40.993Z,88562.06
2022-08-26T02:32:25.827Z,88565.41
2022-08-26T02:35:11.950Z,88564.13
2022-08-26T02:37:56.773Z,88556.09
2022-08-26T02:40:43.175Z,88559.44
2022-08-26T02:43:32.682Z,88555.38
2022-08-26T02:46:27.603Z,88546.50
2022-08-26T02:49:15.161Z,88544.31
2022-08-26T02:51:59.962Z,88541.44
2022-08-26T02:54:46.700Z,88549.88
2022-08-26T02:57:34.415Z,88539.16
2022-08-26T03:00:19.307Z,88536.84
2022-08-26T03:03:04.120Z,88538.56
2022-08-26T03:05:49.328Z,88537.88
2022-08-26T03:08:34.166Z,88533.28
2022-08-26T03:11:18.820Z,88531.78
2022-08-26T03:14:03.877Z,88532.47
2022-08-26T03:16:48.991Z,88528.44
2022-08-26T03:19:33.774Z,88534.31
2022-08-26T03:22:20.503Z,88533.63
2022-08-26T03:25:05.287Z,88528.22
2022-08-26T03:27:50.166Z,88529.38
2022-08-26T03:30:34.863Z,88521.97
2022-08-26T03:33:19.673Z,88527.28
2022-08-26T03:36:04.367Z,88525.91
2022-08-26T03:38:49.333Z,88527.19
2022-08-26T03:41:34.099Z,88519.66
2022-08-26T03:44:19.620Z,88530.13
2022-08-26T03:47:04.219Z,88524.16
2022-08-26T03:49:50.986Z,88521.75
2022-08-26T03:52:39.634Z,88523.00
2022-08-26T03:55:28.883Z,88525.66
2022-08-26T03:58:13.526Z,88522.44
2022-08-26T04:00:58.431Z,88517.56
2022-08-26T04:03:43.201Z,88524.63
2022-08-26T04:06:27.989Z,88526.38
2022-08-26T04:09:12.668Z,88532.00
2022-08-26T04:11:57.458Z,88533.97
2022-08-26T04:14:42.146Z,88525.56
2022-08-26T04:17:26.862Z,88530.97
2022-08-26T04:20:11.753Z,88536.97
2022-08-26T04:22:56.459Z,88535.22
2022-08-26T04:25:42.339Z,88530.97
2022-08-26T04:28:27.588Z,88531.66
2022-08-26T04:31:12.531Z,88530.63
2022-08-26T04:33:57.184Z,88536.72
2022-08-26T04:36:42.052Z,88535.00
2022-08-26T04:39:27.693Z,88533.63
2022-08-26T04:42:13.040Z,88533.38
2022-08-26T04:44:57.809Z,88528.69
2022-08-26T04:47:42.726Z,88531.66
2022-08-26T04:50:28.475Z,88534.31
2022-08-26T04:53:13.652Z,88539.63
2022-08-26T04:55:59.006Z,88547.00
2022-08-26T04:58:43.977Z,88536.97
2022-08-26T05:01:28.766Z,88535.91
2022-08-26T05:04:16.323Z,88527.28
2022-08-26T05:07:03.939Z,88535.34
2022-08-26T05:09:48.612Z,88534.53
2022-08-26T05:12:33.400Z,88530.63
2022-08-26T05:15:17.966Z,88530.06
2022-08-26T05:18:02.812Z,88536.50
2022-08-26T05:20:47.609Z,88530.41
2022-08-26T05:23:32.446Z,88530.41
2022-08-26T05:26:17.142Z,88524.97
2022-08-26T05:29:07.886Z,88526.47
2022-08-26T05:31:52.711Z,88532.13
2022-08-26T05:34:37.511Z,88531.78
2022-08-26T05:37:23.329Z,88528.66
2022-08-26T05:40:08.209Z,88538.22
2022-08-26T05:42:53.367Z,88533.00
2022-08-26T05:45:41.191Z,88532.31
2022-08-26T05:48:29.991Z,88535.97
2022-08-26T05:51:14.776Z,88538.84
2022-08-26T05:53:59.552Z,88542.53
2022-08-26T05:56:44.285Z,88539.97
2022-08-26T05:59:31.104Z,88536.84
2022-08-26T06:02:17.372Z,88539.66
2022-08-26T06:05:02.613Z,88546.44
2022-08-26T06:07:48.362Z,88548.41
2022-08-26T06:10:33.280Z,88551.63
2022-08-26T06:13:18.301Z,88549.69
2022-08-26T06:16:03.252Z,88547.94
2022-08-26T06:18:49.432Z,88557.81
2022-08-26T06:21:34.268Z,88551.69
2022-08-26T06:24:18.958Z,88551.41
2022-08-26T06:27:04.156Z,88557.06
2022-08-26T06:29:48.766Z,88556.78
2022-08-26T06:32:33.440Z,88554.34
2022-08-26T06:35:18.124Z,88553.28
2022-08-26T06:38:03.429Z,88556.13
2022-08-26T06:40:48.164Z,88555.56
2022-08-26T06:43:33.451Z,88561.09
2022-08-26T06:46:18.308Z,88559.81
2022-08-26T06:49:02.980Z,88565.72
2022-08-26T06:51:47.653Z,88558.72
2022-08-26T06:54:33.765Z,88557.00
2022-08-26T06:57:18.579Z,88557.84
2022-08-26T07:00:03.317Z,88554.81
2022-08-26T07:02:49.154Z,88553.78
2022-08-26T07:05:34.296Z,88544.53
2022-08-26T07:08:20.002Z,88547.06
2022-08-26T07:11:04.708Z,88554.19
2022-08-26T07:13:49.877Z,88554.81
2022-08-26T07:16:37.170Z,88557.31
2022-08-26T07:19:30.737Z,88566.44
2022-08-26T07:22:16.827Z,88561.53
2022-08-26T07:25:01.992Z,88560.38
2022-08-26T07:27:54.482Z,88560.53
2022-08-26T07:30:39.845Z,88555.81
2022-08-26T07:33:25.671Z,88558.03
2022-08-26T07:36:10.238Z,88564.06
2022-08-26T07:38:55.538Z,88555.31
2022-08-26T07:41:40.213Z,88562.97
2022-08-26T07:44:25.077Z,88562.50
2022-08-26T07:47:25.431Z,88567.09
2022-08-26T07:50:11.154Z,88564.09
2022-08-26T07:52:56.395Z,88563.50
2022-08-26T07:55:41.035Z,88565.59
2022-08-26T07:58:25.832Z,88564.31
2022-08-26T08:01:11.161Z,88561.63
2022-08-26T08:03:55.970Z,88566.34
2022-08-26T08:06:40.758Z,88562.78
2022-08-26T08:09:29.021Z,88556.91
2022-08-26T08:12:14.229Z,88559.22
2022-08-26T08:14:58.994Z,88543.56
2022-08-26T08:17:44.405Z,88546.22
2022-08-26T08:20:29.178Z,88547.19
2022-08-26T08:23:14.300Z,88539.31
2022-08-26T08:25:59.441Z,88538.75
2022-08-26T08:28:45.285Z,88530.44
2022-08-26T08:34:38.104Z,88539.94
2022-08-26T08:37:22.816Z,88542.38
2022-08-26T08:40:07.670Z,88531.94
2022-08-26T08:45:38.163Z,88530.31
2022-08-26T08:48:27.614Z,88541.53
2022-08-26T08:51:13.043Z,88541.06
2022-08-26T08:53:57.794Z,88544.50
2022-08-26T08:56:42.547Z,88532.16
2022-08-26T08:59:27.461Z,88537.41
2022-08-26T09:02:12.166Z,88534.63
2022-08-26T09:04:57.575Z,88530.09
2022-08-26T09:07:42.580Z,88536.97
2022-08-26T09:10:31.655Z,88527.28
2022-08-26T09:13:16.962Z,88533.03
2022-08-26T09:16:10.363Z,88527.69
2022-08-26T09:18:55.691Z,88529.91
2022-08-26T09:21:40.293Z,88536.94
2022-08-26T09:24:28.347Z,88532.34
2022-08-26T09:27:13.815Z,88531.06
2022-08-26T09:29:58.483Z,88528.69
2022-08-26T09:32:43.218Z,88530.66
2022-08-26T09:35:41.108Z,88525.97
2022-08-26T09:38:26.799Z,88522.56
2022-08-26T09:41:13.053Z,88519.03
2022-08-26T09:43:58.369Z,88523.22
2022-08-26T09:46:42.958Z,88529.66
2022-08-26T09:49:28.617Z,88523.22
2022-08-26T09:52:16.714Z,88523.06
2022-08-26T09:55:01.477Z,88514.91
2022-08-26T09:57:48.197Z,88510.78
2022-08-26T10:00:32.925Z,88516.03
2022-08-26T10:03:18.350Z,88507.09
2022-08-26T10:06:03.610Z,88506.44
2022-08-26T10:08:48.342Z,88514.50
2022-08-26T10:11:36.187Z,88521.75
2022-08-26T10:14:20.933Z,88515.06
2022-08-26T10:17:07.092Z,88517.03
2022-08-26T10:19:57.237Z,88523.06
2022-08-26T10:22:42.897Z,88517.31
2022-08-26T10:25:28.589Z,88522.16
2022-08-26T10:28:13.471Z,88509.94
2022-08-26T10:30:58.178Z,88517.41
2022-08-26T10:33:42.975Z,88517.06
2022-08-26T10:36:27.668Z,88517.91
2022-08-26T10:39:12.809Z,88515.00
2022-08-26T10:41:59.089Z,88520.59
2022-08-26T10:44:43.923Z,88516.03
2022-08-26T10:47:29.123Z,88518.78
2022-08-26T10:50:14.497Z,88521.72
2022-08-26T10:52:59.237Z,88512.75
2022-08-26T10:55:44.924Z,88516.31
2022-08-26T10:58:30.768Z,88517.25
2022-08-26T11:01:16.882Z,88515.72
2022-08-26T11:04:07.551Z,88520.84
2022-08-26T11:06:52.215Z,88516.66
2022-08-26T11:09:37.021Z,88527.94
2022-08-26T11:12:23.200Z,88524.13
2022-08-26T11:15:08.177Z,88528.94
2022-08-26T11:17:53.873Z,88531.63
2022-08-26T11:20:41.922Z,88545.84
2022-08-26T11:23:26.871Z,88541.91
2022-08-26T11:26:11.518Z,88543.44
2022-08-26T11:29:03.816Z,88552.38
2022-08-26T11:31:49.137Z,88551.22
2022-08-26T11:34:33.942Z,88549.41
2022-08-26T11:40:05.622Z,88568.09
2022-08-26T11:42:50.719Z,88569.53
2022-08-26T11:45:35.517Z,88575.38
2022-08-26T11:48:22.220Z,88562.09
2022-08-26T11:51:08.786Z,88558.56
2022-08-26T11:53:53.605Z,88556.19
2022-08-26T11:56:38.412Z,88564.94
2022-08-26T11:59:23.098Z,88562.38
2022-08-26T12:02:08.430Z,88573.88
2022-08-26T12:04:56.136Z,88589.81
2022-08-26T12:07:42.740Z,88592.84
2022-08-26T12:10:29.486Z,88599.19
2022-08-26T12:13:14.403Z,88587.25
2022-08-26T12:16:00.882Z,88601.72
2022-08-26T12:18:45.443Z,88610.84
2022-08-26T12:21:34.666Z,88616.53
2022-08-26T12:24:20.389Z,88620.47
2022-08-26T12:27:05.468Z,88623.84
2022-08-26T12:29:50.690Z,88634.00
2022-08-26T12:32:35.397Z,88630.06
2022-08-26T12:35:20.624Z,88625.81
2022-08-26T12:38:05.449Z,88631.84
2022-08-26T12:40:50.266Z,88630.91
2022-08-26T12:43:35.161Z,88628.94
2022-08-26T12:46:19.838Z,88627.78
2022-08-26T12:49:04.676Z,88631.81
2022-08-26T12:51:49.423Z,88629.88
2022-08-26T12:54:34.249Z,88619.84
2022-08-26T12:57:18.934Z,88627.53
2022-08-26T13:00:03.735Z,88621.81
2022-08-26T13:02:48.498Z,88629.88
2022-08-26T13:05:33.233Z,88619.47
2022-08-26T13:08:18.077Z,88615.59
2022-08-26T13:11:02.919Z,88617.53
2022-08-26T13:13:47.716Z,88611.19
2022-08-26T13:16:33.430Z,88615.44
2022-08-26T13:19:18.159Z,88613.59
2022-08-26T13:22:02.775Z,88617.22
2022-08-26T13:24:47.623Z,88619.41
2022-08-26T13:27:32.299Z,88616.09
2022-08-26T13:30:17.162Z,88626.28
2022-08-26T13:33:02.194Z,88616.00
2022-08-26T13:35:48.617Z,88626.34
2022-08-26T13:38:34.189Z,88616.38
2022-08-26T13:41:19.038Z,88626.53
2022-08-26T13:44:14.400Z,88618.13
2022-08-26T13:46:59.242Z,88616.44
2022-08-26T13:49:44.060Z,88616.72
2022-08-26T13:52:31.732Z,88617.06
2022-08-26T13:55:16.561Z,88614.41
2022-08-26T13:58:01.242Z,88612.78
2022-08-26T14:00:46.175Z,88618.59
2022-08-26T14:03:31.922Z,88618.59
2022-08-26T14:06:17.054Z,88614.09
2022-08-26T14:09:01.959Z,88609.53
2022-08-26T14:11:53.930Z,88612.47
2022-08-26T14:14:39.559Z,88599.94
2022-08-26T14:17:24.389Z,88605.06
2022-08-26T14:20:09.093Z,88599.66
2022-08-26T14:25:59.033Z,88595.22
2022-08-26T14:28:43.740Z,88585.50
2022-08-26T14:31:28.586Z,88581.06
2022-08-26T14:34:13.255Z,88583.19
2022-08-26T14:36:58.041Z,88578.03
2022-08-26T14:39:51.919Z,88579.16
2022-08-26T14:42:37.170Z,88569.84
2022-08-26T14:45:23.472Z,88570.56
2022-08-26T14:48:08.436Z,88560.34
2022-08-26T14:50:53.512Z,88563.41
2022-08-26T14:53:38.221Z,88549.13
2022-08-26T14:56:23.111Z,88552.03
2022-08-26T14:59:07.926Z,88544.44
2022-08-26T15:01:52.968Z,88542.38
2022-08-26T15:04:38.060Z,88531.50
2022-08-26T15:07:22.927Z,88536.13
2022-08-26T15:10:07.572Z,88530.22
2022-08-26T15:12:52.481Z,88536.75
2022-08-26T15:15:37.040Z,88528.47
2022-08-26T15:18:21.950Z,88527.88
2022-08-26T15:21:06.668Z,88525.94
2022-08-26T15:23:51.554Z,88515.44
2022-08-26T15:26:36.346Z,88514.72
2022-08-26T15:29:21.002Z,88512.00
2022-08-26T15:32:05.867Z,88513.81
2022-08-26T15:34:50.615Z,88512.88
2022-08-26T15:37:35.445Z,88506.28
2022-08-26T15:40:20.150Z,88502.09
2022-08-26T15:43:25.452Z,88499.75
2022-08-26T15:46:11.958Z,88497.88
2022-08-26T15:48:56.933Z,88502.41
2022-08-26T15:51:45.456Z,88491.69
2022-08-26T15:54:31.198Z,88492.00
2022-08-26T15:57:18.731Z,88495.34
2022-08-26T16:00:04.473Z,88496.63
2022-08-26T16:02:49.671Z,88493.97
2022-08-26T16:05:34.409Z,88499.16
2022-08-26T16:08:19.218Z,88489.69
2022-08-26T16:11:03.879Z,88493.28
2022-08-26T16:13:48.713Z,88489.47
2022-08-26T16:16:33.345Z,88496.03
2022-08-26T16:19:18.146Z,88499.38
2022-08-26T16:22:02.842Z,88490.25
2022-08-26T16:24:47.622Z,88493.22
2022-08-26T16:27:32.356Z,88484.06
2022-08-26T16:30:17.155Z,88488.50
2022-08-26T16:33:02.055Z,88496.78
2022-08-26T16:35:46.859Z,88497.75
2022-08-26T16:38:32.292Z,88500.97
2022-08-26T16:41:16.920Z,88494.06
2022-08-26T16:44:01.643Z,88497.19
2022-08-26T16:46:46.432Z,88495.59
2022-08-26T16:49:31.552Z,88498.13
2022-08-26T16:52:16.430Z,88500.78
2022-08-26T16:55:01.247Z,88493.31
2022-08-26T16:57:46.104Z,88499.75
2022-08-26T17:00:30.871Z,88498.38
2022-08-26T17:03:15.736Z,88498.78
2022-08-26T17:06:00.473Z,88489.56
2022-08-26T17:08:45.407Z,88486.16
2022-08-26T17:11:30.533Z,88489.25
2022-08-26T17:14:15.247Z,88482.34
2022-08-26T17:17:00.031Z,88490.16
2022-08-26T17:19:47.254Z,88487.38
2022-08-26T17:22:34.609Z,88490.91
2022-08-26T17:25:19.573Z,88507.59
2022-08-26T17:28:04.437Z,88506.22
2022-08-26T17:30:57.852Z,88506.69
2022-08-26T17:33:42.714Z,88508.22
2022-08-26T17:36:28.395Z,88509.13
2022-08-26T17:39:13.460Z,88509.25
2022-08-26T17:41:58.111Z,88510.19
2022-08-26T17:44:42.902Z,88501.91
2022-08-26T17:47:27.692Z,88508.56
2022-08-26T17:50:12.437Z,88504.56
2022-08-26T17:52:57.293Z,88500.97
2022-08-26T17:55:41.919Z,88501.31
2022-08-26T17:58:30.454Z,88502.09
2022-08-26T18:01:15.233Z,88500.72
2022-08-26T18:04:00.881Z,88499.34
2022-08-26T18:06:46.227Z,88501.19
2022-08-26T18:09:31.014Z,88510.28
2022-08-26T18:12:15.809Z,88514.88
2022-08-26T18:15:00.520Z,88515.19
2022-08-26T18:17:45.339Z,88513.34
2022-08-26T18:20:30.023Z,88519.94
2022-08-26T18:23:14.830Z,88532.38
2022-08-26T18:25:59.501Z,88525.41
2022-08-26T18:28:44.309Z,88525.91
2022-08-26T18:31:29.233Z,88520.81
2022-08-26T18:34:14.419Z,88525.72
2022-08-26T18:36:59.219Z,88536.59
2022-08-26T18:39:43.815Z,88542.22
2022-08-26T18:42:28.658Z,88533.97
2022-08-26T18:45:16.130Z,88533.25
2022-08-26T18:48:01.393Z,88534.44
2022-08-26T18:50:47.503Z,88540.25
2022-08-26T18:53:32.293Z,88530.50
2022-08-26T18:56:19.539Z,88534.50
2022-08-26T18:59:04.280Z,88528.53
2022-08-26T19:01:49.058Z,88526.59
2022-08-26T19:04:35.588Z,88531.88
2022-08-26T19:07:20.303Z,88537.16
2022-08-26T19:10:05.334Z,88541.06
2022-08-26T19:12:51.969Z,88536.47
2022-08-26T19:15:36.996Z,88531.19
2022-08-26T19:18:21.788Z,88531.63
2022-08-26T19:21:06.362Z,88532.50
2022-08-26T19:23:51.274Z,88531.69
2022-08-26T19:26:35.950Z,88532.66
2022-08-26T19:29:20.991Z,88533.69
2022-08-26T19:32:05.613Z,88539.13
2022-08-26T19:34:50.424Z,88540.81
2022-08-26T19:37:35.134Z,88534.16
2022-08-26T19:40:19.953Z,88543.88
2022-08-26T19:43:04.694Z,88532.13
2022-08-26T19:45:49.958Z,88540.19
2022-08-26T19:48:34.770Z,88535.78
2022-08-26T19:51:19.460Z,88532.75
2022-08-26T19:54:04.446Z,88534.88
2022-08-26T19:56:49.833Z,88530.44
2022-08-26T19:59:34.963Z,88540.75
2022-08-26T20:02:19.797Z,88533.81
2022-08-26T20:05:05.047Z,88533.72
2022-08-26T20:07:49.845Z,88533.84
2022-08-26T20:10:34.623Z,88529.69
2022-08-26T20:13:19.397Z,88530.94
2022-08-26T20:16:04.133Z,88526.34
2022-08-26T20:18:48.997Z,88527.03
2022-08-26T20:21:33.726Z,88525.38
2022-08-26T20:24:18.531Z,88527.59
2022-08-26T20:27:07.282Z,88516.22
2022-08-26T20:29:52.918Z,88519.53
2022-08-26T20:32:37.719Z,88512.72
2022-08-26T20:35:22.452Z,88511.47
2022-08-26T20:38:07.195Z,88514.25
2022-08-26T20:40:51.874Z,88521.38
2022-08-26T20:43:41.188Z,88506.75
2022-08-26T20:46:26.124Z,88510.25
2022-08-26T20:49:11.181Z,88512.03
2022-08-26T20:51:56.101Z,88512.22
2022-08-26T20:54:40.788Z,88516.38
2022-08-26T20:57:25.753Z,88516.09
2022-08-26T21:00:10.523Z,88517.06
2022-08-26T21:02:55.303Z,88516.38
2022-08-26T21:05:40.151Z,88520.00
2022-08-26T21:08:24.812Z,88515.00
2022-08-26T21:11:10.170Z,88518.50
2022-08-26T21:14:06.826Z,88516.81
2022-08-26T21:17:00.845Z,88518.34
2022-08-26T21:19:45.668Z,88517.81
2022-08-26T21:22:30.402Z,88516.97
2022-08-26T21:25:15.395Z,88515.59
2022-08-26T21:28:00.136Z,88518.06
2022-08-26T21:30:44.905Z,88523.06
2022-08-26T21:33:29.634Z,88524.03
2022-08-26T21:36:14.857Z,88520.72
2022-08-26T21:38:59.587Z,88525.13
2022-08-26T21:41:44.311Z,88519.16
2022-08-26T21:44:29.199Z,88525.56
2022-08-26T21:47:15.170Z,88528.34
2022-08-26T21:50:00.046Z,88526.13
2022-08-26T21:52:44.819Z,88529.84
2022-08-26T21:55:29.908Z,88527.63
2022-08-26T21:58:14.576Z,88532.19
2022-08-26T22:00:59.614Z,88526.50
2022-08-26T22:03:47.525Z,88525.13
2022-08-26T22:06:32.754Z,88524.25
2022-08-26T22:09:17.646Z,88524.94
2022-08-26T22:12:02.310Z,88521.91
2022-08-26T22:14:47.084Z,88521.22
2022-08-26T22:17:31.785Z,88523.03
2022-08-26T22:20:16.893Z,88522.72
2022-08-26T22:23:01.770Z,88520.09
2022-08-26T22:25:46.520Z,88519.97
2022-08-26T22:28:31.239Z,88527.72
2022-08-26T22:31:16.018Z,88527.97
2022-08-26T22:34:00.834Z,88520.63
2022-08-26T22:36:45.716Z,88520.88
2022-08-26T22:39:30.461Z,88521.44
2022-08-26T22:42:15.259Z,88526.84
2022-08-26T22:45:00.067Z,88524.06
2022-08-26T22:47:45.494Z,88530.59
2022-08-26T22:50:30.159Z,88534.00
2022-08-26T22:53:15.051Z,88530.56
2022-08-26T22:55:59.769Z,88524.47
2022-08-26T22:58:45.620Z,88522.53
2022-08-26T23:01:30.611Z,88523.22
2022-08-26T23:04:15.919Z,88525.88
2022-08-26T23:07:00.793Z,88524.47
2022-08-26T23:09:45.592Z,88520.72
2022-08-26T23:12:30.566Z,88514.63
2022-08-26T23:15:15.272Z,88520.03
2022-08-26T23:18:03.307Z,88523.19
2022-08-26T23:20:47.993Z,88515.75
2022-08-26T23:23:32.806Z,88517.41
2022-08-26T23:26:17.916Z,88509.19
2022-08-26T23:29:03.006Z,88507.13
2022-08-26T23:31:48.064Z,88512.22
2022-08-26T23:34:33.300Z,88509.47
2022-08-26T23:37:18.108Z,88506.41
2022-08-26T23:40:03.966Z,88505.84
2022-08-26T23:42:49.334Z,88513.63
2022-08-26T23:45:34.214Z,88507.94
2022-08-26T23:48:19.531Z,88509.19
2022-08-26T23:51:04.823Z,88503.63
2022-08-26T23:53:49.563Z,88501.69
2022-08-26T23:56:34.453Z,88498.66
2022-08-26T23:59:19.283Z,88497.94
